sensor_id;sensor_type;location;lat;lon;timestamp;P1;durP1;ratioP1;P2;durP2;ratioP2
239;SDS011;104;53.590;10.004;2023-12-14T10:17:48;27.10;;;14.50;;
239;SDS011;104;53.590;10.004;2023-12-14T10:20:19;22.53;;;12.80;;
239;SDS011;104;53.590;10.004;2023-12-14T10:22:48;20.40;;;12.23;;
239;SDS011;104;53.590;10.004;2023-12-14T10:25:17;21.63;;;11.43;;
239;SDS011;104;53.590;10.004;2023-12-14T10:27:46;17.00;;;10.67;;
239;SDS011;104;53.590;10.004;2023-12-14T10:30:14;17.70;;;10.70;;
239;SDS011;104;53.590;10.004;2023-12-14T10:32:41;18.10;;;10.73;;
239;SDS011;104;53.590;10.004;2023-12-14T10:35:10;19.47;;;11.40;;
239;SDS011;104;53.590;10.004;2023-12-14T10:37:38;18.50;;;11.00;;
239;SDS011;104;53.590;10.004;2023-12-14T10:40:06;19.20;;;10.57;;
239;SDS011;104;53.590;10.004;2023-12-14T10:42:35;20.13;;;10.43;;
239;SDS011;104;53.590;10.004;2023-12-14T10:45:03;15.30;;;9.60;;
239;SDS011;104;53.590;10.004;2023-12-14T10:47:31;14.00;;;9.70;;
239;SDS011;104;53.590;10.004;2023-12-14T10:49:59;17.43;;;9.93;;
239;SDS011;104;53.590;10.004;2023-12-14T10:52:28;13.50;;;8.60;;
239;SDS011;104;53.590;10.004;2023-12-14T10:55:00;16.80;;;9.80;;
239;SDS011;104;53.590;10.004;2023-12-14T10:57:29;16.53;;;9.77;;
239;SDS011;104;53.590;10.004;2023-12-14T10:59:57;14.30;;;8.93;;
239;SDS011;104;53.590;10.004;2023-12-14T11:02:25;21.40;;;10.03;;
239;SDS011;104;53.590;10.004;2023-12-14T11:04:56;18.33;;;9.30;;
239;SDS011;104;53.590;10.004;2023-12-14T11:07:44;14.50;;;9.13;;
239;SDS011;104;53.590;10.004;2023-12-14T11:10:12;16.87;;;10.10;;
239;SDS011;104;53.590;10.004;2023-12-14T11:12:49;17.90;;;10.20;;
239;SDS011;104;53.590;10.004;2023-12-14T11:15:17;18.43;;;11.10;;
239;SDS011;104;53.590;10.004;2023-12-14T11:20:27;14.93;;;9.20;;
239;SDS011;104;53.590;10.004;2023-12-14T11:22:56;15.63;;;9.53;;
239;SDS011;104;53.590;10.004;2023-12-14T11:25:34;13.90;;;8.50;;
239;SDS011;104;53.590;10.004;2023-12-14T11:28:03;15.47;;;8.57;;
239;SDS011;104;53.590;10.004;2023-12-14T11:30:31;21.23;;;9.90;;
239;SDS011;104;53.590;10.004;2023-12-14T11:33:03;16.13;;;9.13;;
239;SDS011;104;53.590;10.004;2023-12-14T11:35:31;14.23;;;9.40;;
239;SDS011;104;53.590;10.004;2023-12-14T11:41:09;19.47;;;12.30;;
239;SDS011;104;53.590;10.004;2023-12-14T11:43:40;21.17;;;11.40;;
239;SDS011;104;53.590;10.004;2023-12-14T11:46:06;14.43;;;8.80;;
239;SDS011;104;53.590;10.004;2023-12-14T11:48:34;16.60;;;9.77;;
239;SDS011;104;53.590;10.004;2023-12-14T11:51:02;21.90;;;11.20;;
239;SDS011;104;53.590;10.004;2023-12-14T11:53:31;14.67;;;8.40;;
239;SDS011;104;53.590;10.004;2023-12-14T11:56:04;20.30;;;8.37;;
239;SDS011;104;53.590;10.004;2023-12-14T11:58:32;16.33;;;9.10;;
239;SDS011;104;53.590;10.004;2023-12-14T12:01:10;14.70;;;9.20;;
239;SDS011;104;53.590;10.004;2023-12-14T12:03:37;14.10;;;8.03;;
239;SDS011;104;53.590;10.004;2023-12-14T12:06:04;13.43;;;8.00;;
239;SDS011;104;53.590;10.004;2023-12-14T12:08:32;10.17;;;7.70;;
239;SDS011;104;53.590;10.004;2023-12-14T12:11:07;15.80;;;8.40;;
239;SDS011;104;53.590;10.004;2023-12-14T12:13:36;14.67;;;8.90;;
239;SDS011;104;53.590;10.004;2023-12-14T12:16:04;17.20;;;8.40;;
239;SDS011;104;53.590;10.004;2023-12-14T12:18:31;12.90;;;7.70;;
239;SDS011;104;53.590;10.004;2023-12-14T12:20:58;13.37;;;8.43;;
239;SDS011;104;53.590;10.004;2023-12-14T12:23:29;13.83;;;8.00;;
239;SDS011;104;53.590;10.004;2023-12-14T12:25:56;12.00;;;8.40;;
239;SDS011;104;53.590;10.004;2023-12-14T12:28:23;14.53;;;8.80;;
239;SDS011;104;53.590;10.004;2023-12-14T12:30:52;12.83;;;8.30;;
239;SDS011;104;53.590;10.004;2023-12-14T12:33:19;14.27;;;9.33;;
239;SDS011;104;53.590;10.004;2023-12-14T12:35:47;12.03;;;8.37;;
239;SDS011;104;53.590;10.004;2023-12-14T12:38:14;14.43;;;8.90;;
239;SDS011;104;53.590;10.004;2023-12-14T12:40:44;14.63;;;8.10;;
239;SDS011;104;53.590;10.004;2023-12-14T12:43:12;12.10;;;8.00;;
239;SDS011;104;53.590;10.004;2023-12-14T12:45:39;12.97;;;8.50;;
239;SDS011;104;53.590;10.004;2023-12-14T12:48:08;15.43;;;8.70;;
239;SDS011;104;53.590;10.004;2023-12-14T12:50:35;17.20;;;9.73;;
239;SDS011;104;53.590;10.004;2023-12-14T12:53:03;14.23;;;9.50;;
239;SDS011;104;53.590;10.004;2023-12-14T12:55:30;20.63;;;10.30;;
239;SDS011;104;53.590;10.004;2023-12-14T12:57:57;15.97;;;9.63;;
239;SDS011;104;53.590;10.004;2023-12-14T13:00:29;24.60;;;10.50;;
239;SDS011;104;53.590;10.004;2023-12-14T13:02:57;15.57;;;10.00;;
239;SDS011;104;53.590;10.004;2023-12-14T13:05:27;22.57;;;10.83;;
239;SDS011;104;53.590;10.004;2023-12-14T13:07:55;16.47;;;9.53;;
239;SDS011;104;53.590;10.004;2023-12-14T13:10:23;17.53;;;9.70;;
239;SDS011;104;53.590;10.004;2023-12-14T13:12:52;15.90;;;9.00;;
239;SDS011;104;53.590;10.004;2023-12-14T13:15:19;13.00;;;9.00;;
239;SDS011;104;53.590;10.004;2023-12-14T13:17:49;13.73;;;8.73;;
239;SDS011;104;53.590;10.004;2023-12-14T13:20:16;13.30;;;8.90;;
239;SDS011;104;53.590;10.004;2023-12-14T13:22:46;19.63;;;9.80;;
239;SDS011;104;53.590;10.004;2023-12-14T13:25:14;21.80;;;12.20;;
239;SDS011;104;53.590;10.004;2023-12-14T13:27:41;15.50;;;10.67;;
239;SDS011;104;53.590;10.004;2023-12-14T13:30:09;22.20;;;11.80;;
239;SDS011;104;53.590;10.004;2023-12-14T13:32:39;15.80;;;9.50;;
239;SDS011;104;53.590;10.004;2023-12-14T13:35:06;17.37;;;9.23;;
239;SDS011;104;53.590;10.004;2023-12-14T13:37:34;20.50;;;11.77;;
239;SDS011;104;53.590;10.004;2023-12-14T13:40:03;16.67;;;8.73;;
239;SDS011;104;53.590;10.004;2023-12-14T13:42:31;16.93;;;9.70;;
239;SDS011;104;53.590;10.004;2023-12-14T13:45:00;14.17;;;8.63;;
239;SDS011;104;53.590;10.004;2023-12-14T13:47:27;11.43;;;7.87;;
239;SDS011;104;53.590;10.004;2023-12-14T13:49:54;18.67;;;8.97;;
239;SDS011;104;53.590;10.004;2023-12-14T13:52:22;14.97;;;9.00;;
239;SDS011;104;53.590;10.004;2023-12-14T13:54:50;13.20;;;8.80;;
239;SDS011;104;53.590;10.004;2023-12-14T13:57:18;18.60;;;8.83;;
239;SDS011;104;53.590;10.004;2023-12-14T13:59:46;14.90;;;8.20;;
239;SDS011;104;53.590;10.004;2023-12-14T14:02:14;14.20;;;7.80;;
239;SDS011;104;53.590;10.004;2023-12-14T17:43:00;9.70;;;7.00;;
239;SDS011;104;53.590;10.004;2023-12-14T17:45:28;10.30;;;7.30;;
239;SDS011;104;53.590;10.004;2023-12-14T17:47:55;20.30;;;8.60;;
239;SDS011;104;53.590;10.004;2023-12-14T17:50:23;17.57;;;9.17;;
239;SDS011;104;53.590;10.004;2023-12-14T17:52:51;11.63;;;7.23;;
239;SDS011;104;53.590;10.004;2023-12-14T17:55:18;14.20;;;6.70;;
239;SDS011;104;53.590;10.004;2023-12-14T17:57:45;12.23;;;7.77;;
239;SDS011;104;53.590;10.004;2023-12-14T18:00:14;15.47;;;8.30;;
239;SDS011;104;53.590;10.004;2023-12-14T18:02:42;13.60;;;8.73;;
239;SDS011;104;53.590;10.004;2023-12-14T18:05:11;13.73;;;8.77;;
239;SDS011;104;53.590;10.004;2023-12-14T18:07:38;17.60;;;9.50;;
239;SDS011;104;53.590;10.004;2023-12-14T18:10:06;16.97;;;9.77;;
239;SDS011;104;53.590;10.004;2023-12-14T18:12:34;18.47;;;8.87;;
239;SDS011;104;53.590;10.004;2023-12-14T18:15:01;18.30;;;9.83;;
239;SDS011;104;53.590;10.004;2023-12-14T18:17:30;14.57;;;7.63;;
239;SDS011;104;53.590;10.004;2023-12-14T18:19:57;14.63;;;8.67;;
239;SDS011;104;53.590;10.004;2023-12-14T18:22:25;13.37;;;8.20;;
239;SDS011;104;53.590;10.004;2023-12-14T18:24:52;12.10;;;8.90;;
239;SDS011;104;53.590;10.004;2023-12-14T18:27:19;17.17;;;9.60;;
239;SDS011;104;53.590;10.004;2023-12-14T18:29:46;17.60;;;9.60;;
239;SDS011;104;53.590;10.004;2023-12-14T18:32:14;14.13;;;9.63;;
239;SDS011;104;53.590;10.004;2023-12-14T18:34:42;13.10;;;9.10;;
239;SDS011;104;53.590;10.004;2023-12-14T18:37:09;14.93;;;9.20;;
239;SDS011;104;53.590;10.004;2023-12-14T18:39:39;17.07;;;10.17;;
239;SDS011;104;53.590;10.004;2023-12-14T18:42:07;17.23;;;10.07;;
239;SDS011;104;53.590;10.004;2023-12-14T18:44:34;15.90;;;10.90;;
239;SDS011;104;53.590;10.004;2023-12-14T18:47:02;15.17;;;9.60;;
239;SDS011;104;53.590;10.004;2023-12-14T18:49:30;15.93;;;10.90;;
239;SDS011;104;53.590;10.004;2023-12-14T18:51:58;14.40;;;10.00;;
239;SDS011;104;53.590;10.004;2023-12-14T18:54:27;16.97;;;11.07;;
239;SDS011;104;53.590;10.004;2023-12-14T18:56:55;17.40;;;10.73;;
239;SDS011;104;53.590;10.004;2023-12-14T18:59:23;15.10;;;9.67;;
239;SDS011;104;53.590;10.004;2023-12-14T19:01:52;16.33;;;11.10;;
239;SDS011;104;53.590;10.004;2023-12-14T19:04:24;14.53;;;10.23;;
239;SDS011;104;53.590;10.004;2023-12-14T19:06:54;17.63;;;10.90;;
239;SDS011;104;53.590;10.004;2023-12-14T19:09:26;15.60;;;10.63;;
239;SDS011;104;53.590;10.004;2023-12-14T19:11:53;17.67;;;11.43;;
239;SDS011;104;53.590;10.004;2023-12-14T19:14:20;23.20;;;11.60;;
239;SDS011;104;53.590;10.004;2023-12-14T19:16:47;18.73;;;10.80;;
239;SDS011;104;53.590;10.004;2023-12-14T19:19:18;26.37;;;15.87;;
239;SDS011;104;53.590;10.004;2023-12-14T19:21:45;19.10;;;11.50;;
239;SDS011;104;53.590;10.004;2023-12-14T19:24:15;19.63;;;13.20;;
239;SDS011;104;53.590;10.004;2023-12-14T19:26:44;21.70;;;14.00;;
239;SDS011;104;53.590;10.004;2023-12-14T19:29:12;17.10;;;10.87;;
239;SDS011;104;53.590;10.004;2023-12-14T19:31:39;20.83;;;12.37;;
239;SDS011;104;53.590;10.004;2023-12-14T19:34:07;13.77;;;9.83;;
239;SDS011;104;53.590;10.004;2023-12-14T19:36:34;16.83;;;10.50;;
239;SDS011;104;53.590;10.004;2023-12-14T19:39:01;15.57;;;10.87;;
239;SDS011;104;53.590;10.004;2023-12-14T19:41:29;18.90;;;10.70;;
239;SDS011;104;53.590;10.004;2023-12-14T19:44:00;14.80;;;9.13;;
239;SDS011;104;53.590;10.004;2023-12-14T19:46:28;17.50;;;11.20;;
239;SDS011;104;53.590;10.004;2023-12-14T19:48:55;16.30;;;9.70;;
239;SDS011;104;53.590;10.004;2023-12-14T19:51:22;12.10;;;8.63;;
239;SDS011;104;53.590;10.004;2023-12-14T19:53:49;13.10;;;9.37;;
239;SDS011;104;53.590;10.004;2023-12-14T19:56:17;18.70;;;11.20;;
239;SDS011;104;53.590;10.004;2023-12-14T19:58:44;14.77;;;9.23;;
239;SDS011;104;53.590;10.004;2023-12-14T20:01:13;10.80;;;7.83;;
239;SDS011;104;53.590;10.004;2023-12-14T20:03:42;15.43;;;9.00;;
239;SDS011;104;53.590;10.004;2023-12-14T20:06:09;14.53;;;9.43;;
239;SDS011;104;53.590;10.004;2023-12-14T20:08:45;17.03;;;10.03;;
239;SDS011;104;53.590;10.004;2023-12-14T20:11:14;11.60;;;8.47;;
239;SDS011;104;53.590;10.004;2023-12-14T20:13:41;14.97;;;9.80;;
239;SDS011;104;53.590;10.004;2023-12-14T20:16:09;8.60;;;6.60;;
239;SDS011;104;53.590;10.004;2023-12-14T20:18:37;10.40;;;7.10;;
239;SDS011;104;53.590;10.004;2023-12-14T20:21:04;13.07;;;7.30;;
239;SDS011;104;53.590;10.004;2023-12-14T20:23:32;9.40;;;7.13;;
239;SDS011;104;53.590;10.004;2023-12-14T20:25:59;9.80;;;6.97;;
239;SDS011;104;53.590;10.004;2023-12-14T20:28:26;7.60;;;6.20;;
239;SDS011;104;53.590;10.004;2023-12-14T20:30:53;12.70;;;7.47;;
239;SDS011;104;53.590;10.004;2023-12-14T20:33:21;6.60;;;4.83;;
239;SDS011;104;53.590;10.004;2023-12-14T20:35:49;4.57;;;4.33;;
239;SDS011;104;53.590;10.004;2023-12-14T20:38:17;6.57;;;4.87;;
239;SDS011;104;53.590;10.004;2023-12-14T20:40:44;5.23;;;3.73;;
239;SDS011;104;53.590;10.004;2023-12-14T20:43:11;5.27;;;4.07;;
239;SDS011;104;53.590;10.004;2023-12-14T20:45:39;5.50;;;4.10;;
239;SDS011;104;53.590;10.004;2023-12-14T20:48:06;7.80;;;5.30;;
239;SDS011;104;53.590;10.004;2023-12-14T20:50:33;5.83;;;4.50;;
239;SDS011;104;53.590;10.004;2023-12-14T20:53:02;4.87;;;4.30;;
239;SDS011;104;53.590;10.004;2023-12-14T20:55:29;9.10;;;4.27;;
239;SDS011;104;53.590;10.004;2023-12-14T20:57:56;4.77;;;4.10;;
239;SDS011;104;53.590;10.004;2023-12-14T21:00:23;5.50;;;4.20;;
239;SDS011;104;53.590;10.004;2023-12-14T21:02:50;5.50;;;3.93;;
239;SDS011;104;53.590;10.004;2023-12-14T21:05:17;5.10;;;4.17;;
239;SDS011;104;53.590;10.004;2023-12-14T21:07:45;7.03;;;4.17;;
239;SDS011;104;53.590;10.004;2023-12-14T21:10:13;5.97;;;4.80;;
239;SDS011;104;53.590;10.004;2023-12-14T21:12:40;5.10;;;4.10;;
239;SDS011;104;53.590;10.004;2023-12-14T21:15:08;8.50;;;4.60;;
239;SDS011;104;53.590;10.004;2023-12-14T21:17:35;5.30;;;4.20;;
239;SDS011;104;53.590;10.004;2023-12-14T21:20:03;6.53;;;4.10;;
239;SDS011;104;53.590;10.004;2023-12-14T21:22:30;9.00;;;4.43;;
239;SDS011;104;53.590;10.004;2023-12-14T21:24:57;5.60;;;4.40;;
239;SDS011;104;53.590;10.004;2023-12-14T21:27:27;4.40;;;3.63;;
239;SDS011;104;53.590;10.004;2023-12-14T22:03:58;6.53;;;5.00;;
239;SDS011;104;53.590;10.004;2023-12-14T22:06:26;6.37;;;4.53;;
239;SDS011;104;53.590;10.004;2023-12-14T22:08:54;6.00;;;4.70;;
239;SDS011;104;53.590;10.004;2023-12-14T22:11:21;6.47;;;4.83;;
239;SDS011;104;53.590;10.004;2023-12-14T22:13:48;5.57;;;4.63;;
239;SDS011;104;53.590;10.004;2023-12-14T22:16:16;7.00;;;5.20;;
239;SDS011;104;53.590;10.004;2023-12-14T22:18:43;6.20;;;4.93;;
239;SDS011;104;53.590;10.004;2023-12-14T22:21:12;7.60;;;5.33;;
239;SDS011;104;53.590;10.004;2023-12-14T22:23:39;6.27;;;4.90;;
239;SDS011;104;53.590;10.004;2023-12-14T22:26:06;7.10;;;5.13;;
239;SDS011;104;53.590;10.004;2023-12-14T22:28:33;4.67;;;4.07;;
239;SDS011;104;53.590;10.004;2023-12-14T22:31:00;6.30;;;4.37;;
239;SDS011;104;53.590;10.004;2023-12-14T22:33:28;5.97;;;4.37;;
239;SDS011;104;53.590;10.004;2023-12-14T22:35:55;6.20;;;4.70;;
239;SDS011;104;53.590;10.004;2023-12-14T22:38:24;4.60;;;4.13;;
239;SDS011;104;53.590;10.004;2023-12-14T22:40:51;4.73;;;3.90;;
239;SDS011;104;53.590;10.004;2023-12-14T22:43:19;5.37;;;4.30;;
239;SDS011;104;53.590;10.004;2023-12-14T22:45:46;5.10;;;4.20;;
239;SDS011;104;53.590;10.004;2023-12-14T22:48:13;6.50;;;4.40;;
239;SDS011;104;53.590;10.004;2023-12-14T22:50:40;5.37;;;4.37;;
239;SDS011;104;53.590;10.004;2023-12-14T22:53:07;5.47;;;4.63;;
239;SDS011;104;53.590;10.004;2023-12-14T22:55:36;6.43;;;4.83;;
239;SDS011;104;53.590;10.004;2023-12-14T22:58:04;6.50;;;4.57;;
239;SDS011;104;53.590;10.004;2023-12-14T23:00:31;6.40;;;4.70;;
239;SDS011;104;53.590;10.004;2023-12-14T23:03:02;6.53;;;4.60;;
239;SDS011;104;53.590;10.004;2023-12-14T23:05:29;5.40;;;4.70;;
239;SDS011;104;53.590;10.004;2023-12-14T23:07:56;8.40;;;5.00;;
239;SDS011;104;53.590;10.004;2023-12-14T23:10:22;7.07;;;4.87;;
239;SDS011;104;53.590;10.004;2023-12-14T23:12:51;6.90;;;4.70;;
239;SDS011;104;53.590;10.004;2023-12-14T23:15:18;5.83;;;5.00;;
239;SDS011;104;53.590;10.004;2023-12-14T23:17:45;6.77;;;5.23;;
239;SDS011;104;53.590;10.004;2023-12-14T23:20:13;6.27;;;5.17;;
239;SDS011;104;53.590;10.004;2023-12-14T23:22:41;6.77;;;5.30;;
239;SDS011;104;53.590;10.004;2023-12-14T23:25:08;7.93;;;5.20;;
239;SDS011;104;53.590;10.004;2023-12-14T23:27:35;6.87;;;5.40;;
239;SDS011;104;53.590;10.004;2023-12-14T23:30:04;7.90;;;5.50;;
239;SDS011;104;53.590;10.004;2023-12-14T23:32:32;8.47;;;5.67;;
239;SDS011;104;53.590;10.004;2023-12-14T23:34:59;8.83;;;5.80;;
239;SDS011;104;53.590;10.004;2023-12-14T23:37:26;7.30;;;5.10;;
239;SDS011;104;53.590;10.004;2023-12-14T23:39:54;7.30;;;5.40;;
239;SDS011;104;53.590;10.004;2023-12-14T23:42:21;8.37;;;5.93;;
239;SDS011;104;53.590;10.004;2023-12-14T23:44:48;8.27;;;5.70;;
239;SDS011;104;53.590;10.004;2023-12-14T23:47:16;10.53;;;5.90;;
239;SDS011;104;53.590;10.004;2023-12-14T23:49:44;9.07;;;6.07;;
239;SDS011;104;53.590;10.004;2023-12-14T23:52:11;9.10;;;6.40;;
239;SDS011;104;53.590;10.004;2023-12-14T23:54:38;12.53;;;7.00;;
239;SDS011;104;53.590;10.004;2023-12-14T23:57:05;9.30;;;6.50;;
239;SDS011;104;53.590;10.004;2023-12-14T23:59:33;11.40;;;7.00;;
